Saint Marys City, Maryland
Current Conditions -  °F | °C
As of 7:53 PM on Friday 24 Oct 2014 (Local Time) from KNUI Reporting Station
Clear Clear  
Wind Chill: 53°   Ceiling: Unl
Heat Index: 53°   Visibility: 10mi
Dew Point: 43°   Wind: 0mph
Humidity: 69%   Direction: NA
Pressure: 29.92"   Gusts: NA
Location:  38.19°N, 76.43°W
Report Text: KNUI 242353Z AUTO 00000KT 10SM CLR 12/06 A2992 RMK AO2 SLP131 T01170061 10194 20117 53010 $
Loading
Personal Weather Stations






























Interactive Weather Map New forecast layout! Learn more

10-Day Weather Forecast

Advertisements
Track Severe Weather on mobile